Time;durP1;ratioP1;P1;durP2;ratioP2;P2;SDS_P1;SDS_P2;PMS_P1;PMS_P2;Temp;Humidity;BMP_temperature;BMP_pressure;BME280_temperature;BME280_humidity;BME280_pressure;Samples;Min_cycle;Max_cycle;Signal;HPM_P1;HPM_P2
2023/08/17 00:02:47;;;;;;;3.72;2.02;;;25.20;99.90;;;;;;1939038;74;21507;-88
2023/08/17 00:05:38;;;;;;;6.10;2.33;;;25.20;99.90;;;;;;1922611;74;21068;-88
2023/08/17 00:08:30;;;;;;;3.87;2.45;;;25.20;99.90;;;;;;1935194;74;22250;-88
2023/08/17 00:11:21;;;;;;;3.67;2.33;;;25.10;99.90;;;;;;1922888;74;21114;-88
2023/08/17 00:14:13;;;;;;;3.80;1.87;;;25.10;99.90;;;;;;1935324;74;21181;-88
2023/08/17 00:17:05;;;;;;;4.22;2.08;;;25.10;99.90;;;;;;1922330;74;21087;-88
2023/08/17 00:19:56;;;;;;;4.85;2.35;;;25.10;99.90;;;;;;1934981;74;21135;-88
2023/08/17 00:22:48;;;;;;;3.90;2.20;;;25.10;99.90;;;;;;1922333;74;21122;-87
2023/08/17 00:25:39;;;;;;;3.15;2.22;;;25.10;99.90;;;;;;1935267;74;21103;-87
2023/08/17 00:28:30;;;;;;;5.95;2.00;;;25.10;99.90;;;;;;1922764;74;21220;-88
2023/08/17 00:31:22;;;;;;;3.30;2.12;;;25.10;99.90;;;;;;1935218;74;21087;-87
2023/08/17 00:34:14;;;;;;;4.55;2.22;;;25.10;99.90;;;;;;1922818;74;21099;-87
2023/08/17 00:37:06;;;;;;;4.17;2.00;;;25.00;99.90;;;;;;1935471;74;21151;-88
2023/08/17 00:39:57;;;;;;;2.60;2.02;;;24.90;99.90;;;;;;1922859;74;21051;-88
2023/08/17 00:42:49;;;;;;;3.40;2.12;;;24.80;99.90;;;;;;1934964;74;21180;-88
2023/08/17 00:45:40;;;;;;;2.30;2.10;;;24.80;99.90;;;;;;1922952;74;21079;-87
2023/08/17 00:48:34;;;;;;;3.27;2.15;;;24.70;99.90;;;;;;1903118;74;21114;-88
2023/08/17 00:51:26;;;;;;;2.65;1.85;;;24.70;99.90;;;;;;1935069;74;21075;-88
2023/08/17 00:54:20;;;;;;;2.98;2.10;;;24.70;99.90;;;;;;1921934;74;21135;-88
2023/08/17 00:57:12;;;;;;;3.58;2.58;;;24.60;99.90;;;;;;1922196;74;21092;-88
2023/08/17 01:00:05;;;;;;;2.20;1.90;;;24.50;99.90;;;;;;1922649;74;21059;-88
2023/08/17 01:02:57;;;;;;;3.35;1.77;;;24.40;99.90;;;;;;1935625;74;21161;-88
2023/08/17 01:05:49;;;;;;;4.87;2.08;;;24.30;99.90;;;;;;1941780;74;21098;-88
2023/08/17 01:08:40;;;;;;;2.65;1.72;;;24.30;99.90;;;;;;1941782;74;21148;-88
2023/08/17 01:11:35;;;;;;;2.83;1.67;;;24.20;99.90;;;;;;1941683;74;21075;-88
2023/08/17 01:14:29;;;;;;;3.60;1.82;;;24.20;99.90;;;;;;1941565;74;21212;-88
2023/08/17 01:17:24;;;;;;;3.98;1.77;;;24.20;99.90;;;;;;1941631;74;21190;-88
2023/08/17 01:20:16;;;;;;;4.65;2.00;;;24.30;99.90;;;;;;1941548;74;21097;-88
2023/08/17 01:23:08;;;;;;;2.95;2.00;;;24.30;99.90;;;;;;1941514;74;21584;-88
2023/08/17 01:25:59;;;;;;;4.25;1.85;;;24.40;99.90;;;;;;1941826;74;21086;-88
2023/08/17 01:28:51;;;;;;;5.58;1.98;;;24.40;99.90;;;;;;1941565;74;21205;-88
2023/08/17 01:34:27;;;;;;;3.85;2.50;;;24.50;99.90;;;;;;1958297;72;22228;-88
2023/08/17 01:37:21;;;;;;;4.90;2.20;;;24.50;99.90;;;;;;1917272;75;21048;-88
2023/08/17 01:40:15;;;;;;;3.85;2.08;;;24.20;99.90;;;;;;1917318;75;21152;-88
2023/08/17 01:43:07;;;;;;;3.17;2.10;;;24.00;99.90;;;;;;1917416;75;21134;-88
2023/08/17 01:45:59;;;;;;;3.12;2.08;;;23.80;99.90;;;;;;1917327;75;21099;-87
2023/08/17 01:48:51;;;;;;;4.10;1.90;;;23.80;99.90;;;;;;1917204;75;21127;-89
2023/08/17 01:51:42;;;;;;;2.40;2.00;;;23.70;99.90;;;;;;1917379;75;21186;-89
2023/08/17 01:54:34;;;;;;;2.67;1.98;;;23.70;99.90;;;;;;1917312;75;21095;-89
2023/08/17 01:57:25;;;;;;;2.92;1.80;;;23.70;99.90;;;;;;1917141;75;21107;-89
2023/08/17 02:00:17;;;;;;;6.33;2.20;;;23.70;99.90;;;;;;1917357;75;21110;-89
2023/08/17 02:03:09;;;;;;;4.35;2.10;;;23.70;99.90;;;;;;1916881;75;21108;-89
2023/08/17 02:06:09;;;;;;;3.77;2.25;;;23.70;99.90;;;;;;1916915;75;21102;-89
2023/08/17 02:09:01;;;;;;;4.40;2.05;;;23.80;99.90;;;;;;1917000;75;21205;-88
2023/08/17 02:11:52;;;;;;;5.90;2.50;;;23.90;99.90;;;;;;1916963;75;21094;-89
2023/08/17 02:14:44;;;;;;;5.08;2.10;;;24.00;99.90;;;;;;1916950;75;21223;-89
2023/08/17 02:17:36;;;;;;;2.87;2.15;;;24.10;99.90;;;;;;1916803;75;21095;-89
2023/08/17 02:20:31;;;;;;;5.25;2.35;;;23.90;99.90;;;;;;1916658;75;21107;-89
2023/08/17 02:23:24;;;;;;;3.80;2.40;;;23.80;99.90;;;;;;1917031;75;21043;-89
2023/08/17 02:26:22;;;;;;;4.83;1.95;;;23.60;99.90;;;;;;1917022;75;21091;-88
2023/08/17 02:29:14;;;;;;;3.77;2.40;;;23.60;99.90;;;;;;1916557;75;21051;-89
2023/08/17 02:32:05;;;;;;;4.10;2.10;;;23.50;99.90;;;;;;1917097;75;21083;-88
2023/08/17 02:34:56;;;;;;;4.15;2.40;;;23.40;99.90;;;;;;1917231;74;21134;-89
2023/08/17 02:37:47;;;;;;;5.72;4.50;;;23.40;99.90;;;;;;1917089;75;21055;-88
2023/08/17 02:40:39;;;;;;;4.05;2.50;;;23.40;99.90;;;;;;1917582;75;21142;-88
2023/08/17 02:43:30;;;;;;;4.70;3.02;;;23.40;99.90;;;;;;1905116;75;21068;-89
2023/08/17 02:46:21;;;;;;;4.20;2.42;;;23.30;99.90;;;;;;1903907;75;21103;-89
2023/08/17 02:49:13;;;;;;;6.30;4.67;;;23.40;99.90;;;;;;1904115;75;21102;-89
2023/08/17 02:52:05;;;;;;;4.22;2.45;;;23.40;99.90;;;;;;1904294;75;21071;-89
2023/08/17 02:54:56;;;;;;;21.45;11.53;;;23.40;99.90;;;;;;1904460;75;21189;-89
2023/08/17 02:57:47;;;;;;;7.58;5.12;;;23.40;99.90;;;;;;1916622;75;21098;-89
2023/08/17 03:00:38;;;;;;;3.98;2.12;;;23.10;99.90;;;;;;1916515;75;21048;-89
2023/08/17 03:03:29;;;;;;;6.20;2.45;;;23.00;99.90;;;;;;1916504;75;21070;-89
2023/08/17 03:06:21;;;;;;;3.12;1.98;;;22.90;99.90;;;;;;1916487;75;21209;-89
2023/08/17 03:09:12;;;;;;;3.12;2.30;;;23.00;99.90;;;;;;1916399;75;21330;-89
2023/08/17 03:12:03;;;;;;;3.50;2.40;;;23.00;99.90;;;;;;1916582;75;21157;-89
2023/08/17 03:14:54;;;;;;;4.85;2.12;;;23.10;99.90;;;;;;1904106;75;21099;-89
2023/08/17 03:17:46;;;;;;;3.20;2.45;;;23.10;99.90;;;;;;1904221;75;21099;-89
2023/08/17 03:20:37;;;;;;;3.98;2.25;;;23.30;99.90;;;;;;1904178;75;21110;-89
2023/08/17 03:23:29;;;;;;;3.98;2.05;;;23.40;99.90;;;;;;1904154;75;21107;-89
2023/08/17 03:26:21;;;;;;;2.67;2.42;;;23.40;99.90;;;;;;1904166;75;21107;-88
2023/08/17 03:29:12;;;;;;;2.55;1.98;;;23.40;99.90;;;;;;1916727;75;21153;-89
2023/08/17 03:32:04;;;;;;;2.72;2.20;;;23.50;99.90;;;;;;1916548;75;21103;-89
2023/08/17 03:34:56;;;;;;;4.53;2.40;;;23.50;99.90;;;;;;1916521;74;21217;-88
2023/08/17 03:37:47;;;;;;;6.30;2.65;;;23.60;99.90;;;;;;1916666;75;21091;-89
2023/08/17 03:40:39;;;;;;;4.75;2.20;;;23.60;99.90;;;;;;1916550;75;21152;-89
2023/08/17 03:43:30;;;;;;;3.40;2.35;;;23.70;99.90;;;;;;1916522;75;21110;-89
2023/08/17 03:46:23;;;;;;;3.20;2.00;;;23.80;99.90;;;;;;1916219;75;21083;-89
2023/08/17 03:49:16;;;;;;;3.02;1.85;;;23.70;99.90;;;;;;1916548;75;21113;-88
2023/08/17 03:52:08;;;;;;;3.30;2.30;;;23.70;99.90;;;;;;1916061;75;21086;-89
2023/08/17 03:55:00;;;;;;;4.33;2.40;;;23.70;99.90;;;;;;1916219;75;21110;-89
2023/08/17 03:57:51;;;;;;;3.75;2.37;;;23.80;99.90;;;;;;1916011;75;21212;-89
2023/08/17 04:00:43;;;;;;;3.35;2.30;;;23.80;99.90;;;;;;1915804;75;21187;-88
2023/08/17 04:03:34;;;;;;;5.40;2.20;;;23.80;99.90;;;;;;1916006;75;21200;-89
2023/08/17 04:06:26;;;;;;;4.40;2.45;;;23.80;99.90;;;;;;1916713;75;21095;-88
2023/08/17 04:09:17;;;;;;;3.00;2.15;;;23.80;99.90;;;;;;1917378;75;21086;-89
2023/08/17 04:12:10;;;;;;;4.15;2.10;;;23.80;99.90;;;;;;1916550;75;21121;-89
2023/08/17 04:15:01;;;;;;;2.72;2.17;;;23.80;99.90;;;;;;1916758;75;21146;-89
2023/08/17 04:17:55;;;;;;;4.03;2.52;;;23.80;99.90;;;;;;1916455;75;21083;-89
2023/08/17 04:20:47;;;;;;;2.92;2.00;;;23.70;99.90;;;;;;1916400;75;21099;-89
2023/08/17 04:23:40;;;;;;;3.70;2.10;;;23.70;99.90;;;;;;1916357;75;21135;-88
2023/08/17 04:26:32;;;;;;;6.78;2.40;;;23.70;99.90;;;;;;1916527;75;21623;-88
2023/08/17 04:29:24;;;;;;;5.58;2.90;;;23.80;99.90;;;;;;1916402;75;21117;-88
2023/08/17 04:32:17;;;;;;;2.65;2.35;;;23.90;99.90;;;;;;1916335;75;22202;-89
2023/08/17 04:35:10;;;;;;;5.97;2.40;;;23.90;99.90;;;;;;1915603;75;21142;-89
2023/08/17 04:38:03;;;;;;;3.92;2.40;;;23.90;99.90;;;;;;1916950;75;21515;-88
2023/08/17 04:40:54;;;;;;;5.72;2.45;;;23.90;99.90;;;;;;1904468;75;21307;-88
2023/08/17 04:43:46;;;;;;;5.20;2.25;;;23.80;99.90;;;;;;1916710;75;21099;-88
2023/08/17 04:46:38;;;;;;;5.62;2.30;;;23.50;99.90;;;;;;1916727;75;21111;-88
2023/08/17 04:49:29;;;;;;;3.65;2.40;;;23.20;99.90;;;;;;1904446;75;21235;-88
2023/08/17 04:52:20;;;;;;;3.55;2.10;;;23.20;99.90;;;;;;1904246;75;21071;-88
2023/08/17 04:55:11;;;;;;;3.72;1.95;;;23.20;99.90;;;;;;1904444;75;21123;-88
2023/08/17 04:58:04;;;;;;;3.62;2.27;;;23.30;99.90;;;;;;1904054;75;21052;-88
2023/08/17 05:00:56;;;;;;;8.33;2.58;;;23.30;99.90;;;;;;1904340;75;21095;-88
2023/08/17 05:03:48;;;;;;;4.97;2.47;;;23.30;99.90;;;;;;1904316;75;21132;-88
2023/08/17 05:06:40;;;;;;;3.00;2.47;;;23.40;99.90;;;;;;1916609;75;21055;-88
2023/08/17 05:09:32;;;;;;;4.67;2.40;;;23.40;99.90;;;;;;1916770;75;21098;-88
2023/08/17 05:12:24;;;;;;;2.72;2.30;;;23.40;99.90;;;;;;1904373;75;21108;-88
2023/08/17 05:15:15;;;;;;;4.70;2.55;;;23.40;99.90;;;;;;1916918;75;21047;-88
2023/08/17 05:18:09;;;;;;;5.90;2.37;;;23.50;99.90;;;;;;1916473;75;21091;-88
2023/08/17 05:21:01;;;;;;;4.97;2.90;;;23.30;99.90;;;;;;1904302;75;21098;-87
2023/08/17 05:23:54;;;;;;;6.08;2.40;;;22.90;99.90;;;;;;1904454;75;21184;-87
2023/08/17 05:26:47;;;;;;;3.98;2.60;;;22.90;99.90;;;;;;1916889;75;21117;-88
2023/08/17 05:29:38;;;;;;;4.55;2.42;;;22.80;99.90;;;;;;1916876;75;21098;-88
2023/08/17 05:32:29;;;;;;;5.92;2.40;;;22.80;99.90;;;;;;1916950;75;21197;-89
2023/08/17 05:35:22;;;;;;;4.08;2.05;;;22.80;99.90;;;;;;1905486;75;21145;-88
2023/08/17 05:38:13;;;;;;;5.08;2.50;;;22.80;99.90;;;;;;1926207;74;21090;-88
2023/08/17 05:41:05;;;;;;;6.03;3.80;;;22.80;99.90;;;;;;1927533;74;21060;-88
2023/08/17 05:43:56;;;;;;;4.03;2.85;;;22.90;99.90;;;;;;1930784;73;21040;-88
2023/08/17 05:46:48;;;;;;;5.53;2.92;;;23.00;99.90;;;;;;1928788;73;21096;-88
2023/08/17 05:49:40;;;;;;;4.10;2.95;;;23.00;99.90;;;;;;1926483;74;21149;-88
2023/08/17 05:52:32;;;;;;;3.37;2.70;;;23.10;99.90;;;;;;1926604;74;21591;-88
2023/08/17 05:55:23;;;;;;;3.65;2.40;;;23.10;99.90;;;;;;1927458;74;21124;-88
2023/08/17 05:58:15;;;;;;;6.12;2.62;;;23.10;99.90;;;;;;1929317;74;21109;-88
2023/08/17 06:01:09;;;;;;;6.05;3.25;;;23.10;99.90;;;;;;1927216;74;21137;-88
2023/08/17 06:04:01;;;;;;;4.42;2.95;;;23.20;99.90;;;;;;1927408;74;21082;-88
2023/08/17 06:06:54;;;;;;;6.80;3.02;;;23.30;99.90;;;;;;1928358;74;21046;-88
2023/08/17 06:09:45;;;;;;;5.45;2.60;;;23.40;99.90;;;;;;1929365;74;21030;-88
2023/08/17 06:12:36;;;;;;;6.60;2.70;;;23.50;99.90;;;;;;1928487;74;21129;-88
2023/08/17 06:15:28;;;;;;;3.95;2.67;;;23.70;99.90;;;;;;1928086;74;21083;-88
2023/08/17 06:18:20;;;;;;;4.83;2.75;;;23.80;99.90;;;;;;1928067;74;21051;-88
2023/08/17 06:21:11;;;;;;;5.17;2.95;;;23.90;99.90;;;;;;1928555;74;21561;-88
2023/08/17 06:24:04;;;;;;;6.08;2.92;;;24.00;99.90;;;;;;1928120;74;21611;-89
2023/08/17 06:26:55;;;;;;;3.55;2.70;;;24.10;99.90;;;;;;1928278;74;21074;-88
2023/08/17 06:29:46;;;;;;;6.03;3.50;;;24.10;99.90;;;;;;1928341;74;21242;-88
2023/08/17 06:32:38;;;;;;;6.67;2.70;;;24.10;99.90;;;;;;1928165;74;21102;-89
2023/08/17 06:35:29;;;;;;;4.35;2.90;;;24.10;99.90;;;;;;1928658;74;21038;-88
2023/08/17 06:38:21;;;;;;;5.33;2.90;;;24.10;99.90;;;;;;1928886;74;21205;-88
2023/08/17 06:41:12;;;;;;;7.15;3.10;;;24.20;99.90;;;;;;1928366;74;21054;-88
2023/08/17 06:44:05;;;;;;;4.42;2.70;;;24.20;99.90;;;;;;1927944;74;21063;-88
2023/08/17 06:46:58;;;;;;;4.08;2.58;;;24.20;99.90;;;;;;1927796;74;21129;-88
2023/08/17 06:49:49;;;;;;;6.87;2.92;;;24.20;99.90;;;;;;1927428;74;21088;-88
2023/08/17 06:52:41;;;;;;;4.00;3.05;;;24.30;99.90;;;;;;1926666;74;21110;-88
2023/08/17 06:55:32;;;;;;;3.83;3.05;;;24.40;99.90;;;;;;1926233;74;21179;-89
2023/08/17 06:58:24;;;;;;;5.42;2.90;;;24.40;99.90;;;;;;1926321;74;21047;-89
2023/08/17 07:01:16;;;;;;;3.50;2.83;;;24.50;99.90;;;;;;1926307;74;21406;-89
2023/08/17 07:04:08;;;;;;;4.55;2.87;;;24.60;99.90;;;;;;1926464;74;21177;-88
2023/08/17 07:06:59;;;;;;;3.47;2.70;;;24.70;99.90;;;;;;1926291;74;21051;-88
2023/08/17 07:09:50;;;;;;;5.37;3.02;;;24.70;99.90;;;;;;1926570;74;21124;-88
2023/08/17 07:12:41;;;;;;;5.72;2.72;;;24.90;99.90;;;;;;1926343;74;21105;-87
2023/08/17 07:15:33;;;;;;;5.67;2.77;;;25.00;99.90;;;;;;1926859;74;21138;-88
2023/08/17 07:18:24;;;;;;;4.40;2.83;;;25.10;99.90;;;;;;1926191;74;21515;-88
2023/08/17 07:21:16;;;;;;;6.40;2.75;;;25.20;99.90;;;;;;1926438;74;21164;-87
2023/08/17 07:24:16;;;;;;;10.43;3.42;;;25.20;99.90;;;;;;1926108;74;21090;-88
2023/08/17 07:27:08;;;;;;;5.47;2.90;;;25.30;99.90;;;;;;1925937;74;21098;-88
2023/08/17 07:29:59;;;;;;;6.37;2.62;;;25.30;99.90;;;;;;1925791;74;21055;-89
2023/08/17 07:32:51;;;;;;;6.10;2.90;;;25.30;99.90;;;;;;1925778;74;21139;-89
2023/08/17 07:35:42;;;;;;;4.67;2.98;;;25.20;99.90;;;;;;1925932;74;21559;-88
2023/08/17 07:38:33;;;;;;;4.40;3.25;;;25.30;99.90;;;;;;1919414;74;21690;-88
2023/08/17 07:41:25;;;;;;;7.65;3.10;;;25.20;99.90;;;;;;1904964;75;21092;-88
2023/08/17 07:44:16;;;;;;;4.12;3.00;;;25.20;99.90;;;;;;1904091;75;21460;-88
2023/08/17 07:47:08;;;;;;;3.72;2.55;;;25.40;99.90;;;;;;1903916;75;21108;-88
2023/08/17 07:49:59;;;;;;;5.87;2.80;;;25.50;99.90;;;;;;1904050;75;21071;-88
2023/08/17 07:52:52;;;;;;;4.97;2.80;;;25.60;99.90;;;;;;1904490;75;21087;-89
2023/08/17 07:55:43;;;;;;;2.72;2.27;;;25.60;99.90;;;;;;1903931;75;21103;-88
2023/08/17 07:58:34;;;;;;;4.90;2.67;;;25.70;99.90;;;;;;1904081;75;21096;-89
2023/08/17 08:01:26;;;;;;;4.85;2.55;;;25.80;99.90;;;;;;1904835;75;21168;-88
2023/08/17 08:04:17;;;;;;;5.35;2.80;;;25.80;99.90;;;;;;1905366;75;21227;-88
2023/08/17 08:07:09;;;;;;;6.25;2.98;;;25.90;99.90;;;;;;1870488;75;21086;-89
2023/08/17 08:10:00;;;;;;;4.50;2.65;;;25.90;99.90;;;;;;1859181;77;21604;-88
2023/08/17 08:12:52;;;;;;;4.80;2.67;;;25.90;99.90;;;;;;1859547;77;21130;-88
2023/08/17 08:15:43;;;;;;;3.83;2.92;;;26.00;99.90;;;;;;1871309;77;21608;-89
2023/08/17 08:18:34;;;;;;;6.80;2.62;;;26.10;99.90;;;;;;1871617;77;21167;-88
2023/08/17 08:21:28;;;;;;;3.65;2.58;;;26.20;99.90;;;;;;1871883;77;21101;-89
2023/08/17 08:24:19;;;;;;;4.60;2.85;;;26.40;99.90;;;;;;1871316;77;21070;-89
2023/08/17 08:27:12;;;;;;;3.90;2.33;;;26.50;99.90;;;;;;1859526;77;21242;-89
2023/08/17 08:30:04;;;;;;;6.47;2.80;;;26.60;99.90;;;;;;1859581;77;21135;-89
2023/08/17 08:32:57;;;;;;;5.33;3.22;;;26.60;99.90;;;;;;1859517;77;21129;-89
2023/08/17 08:35:48;;;;;;;4.85;2.60;;;26.60;99.90;;;;;;1859732;77;21134;-89
2023/08/17 08:38:39;;;;;;;5.35;3.00;;;26.70;99.90;;;;;;1859569;77;21069;-88
2023/08/17 08:41:32;;;;;;;5.03;2.83;;;26.70;99.90;;;;;;1859684;77;21114;-90
2023/08/17 08:44:24;;;;;;;5.72;3.05;;;26.90;99.90;;;;;;1859743;77;21255;-90
2023/08/17 08:47:17;;;;;;;3.40;2.70;;;26.90;99.90;;;;;;1859617;77;21558;-90
2023/08/17 08:50:09;;;;;;;7.00;3.20;;;26.90;99.90;;;;;;1859655;77;21109;-89
2023/08/17 08:53:04;;;;;;;3.70;3.02;;;27.00;99.90;;;;;;1859683;77;21112;-89
2023/08/17 08:55:58;;;;;;;3.90;2.70;;;26.90;99.90;;;;;;1859768;77;21109;-89
2023/08/17 08:58:50;;;;;;;5.00;3.08;;;26.90;99.90;;;;;;1859746;77;21466;-89
2023/08/17 09:01:44;;;;;;;4.97;2.98;;;26.90;99.90;;;;;;1871281;77;21154;-90
2023/08/17 09:04:36;;;;;;;5.37;3.02;;;26.90;99.90;;;;;;1871525;77;21098;-89
2023/08/17 09:07:30;;;;;;;8.68;3.50;;;27.10;99.90;;;;;;1911102;75;21090;-89
2023/08/17 09:10:21;;;;;;;7.70;3.37;;;27.20;99.90;;;;;;1916368;75;21122;-89
2023/08/17 09:13:13;;;;;;;7.30;3.10;;;27.30;99.90;;;;;;1916286;75;21152;-89
2023/08/17 09:16:05;;;;;;;5.75;2.80;;;27.40;99.90;;;;;;1915987;75;21117;-89
2023/08/17 09:18:58;;;;;;;6.92;3.02;;;27.50;99.90;;;;;;1915942;75;21244;-89
2023/08/17 09:21:50;;;;;;;7.03;3.40;;;27.60;99.90;;;;;;1915753;75;21526;-89
2023/08/17 09:24:42;;;;;;;7.33;3.45;;;27.60;99.90;;;;;;1915710;75;21207;-89
2023/08/17 09:27:35;;;;;;;3.65;2.90;;;27.70;99.90;;;;;;1916547;75;21143;-89
2023/08/17 09:30:29;;;;;;;4.03;3.00;;;27.70;99.90;;;;;;1916483;75;21099;-90
2023/08/17 09:33:22;;;;;;;6.45;3.20;;;27.60;99.90;;;;;;1916301;75;21110;-89
2023/08/17 09:36:14;;;;;;;5.12;3.12;;;27.60;99.90;;;;;;1916342;75;21208;-89
2023/08/17 09:39:05;;;;;;;6.15;2.80;;;27.70;99.90;;;;;;1916446;75;21645;-90
2023/08/17 09:41:57;;;;;;;6.50;3.35;;;27.80;99.90;;;;;;1916500;74;21144;-90
2023/08/17 09:44:51;;;;;;;5.35;3.00;;;28.00;99.90;;;;;;1916418;75;21060;-90
2023/08/17 09:47:47;;;;;;;9.65;3.20;;;28.10;99.90;;;;;;1916421;75;21074;-89
2023/08/17 09:50:42;;;;;;;5.83;3.15;;;28.10;99.90;;;;;;1916372;75;21150;-89
2023/08/17 09:53:39;;;;;;;6.90;3.00;;;28.20;99.90;;;;;;1916583;75;21109;-89
2023/08/17 09:56:33;;;;;;;;;;;28.30;99.90;;;;;;1919489;75;21101;-89
2023/08/17 09:59:28;;;;;;;3.50;2.70;;;28.30;99.90;;;;;;1917345;75;20161;-89
2023/08/17 10:02:23;;;;;;;6.08;2.80;;;28.40;99.90;;;;;;1917164;75;21546;-89
2023/08/17 10:05:20;;;;;;;4.45;2.98;;;28.50;99.90;;;;;;1916644;75;21074;-89
2023/08/17 10:08:17;;;;;;;5.67;2.80;;;28.60;99.90;;;;;;1916468;75;21176;-89
2023/08/17 10:11:11;;;;;;;4.90;2.83;;;28.70;99.90;;;;;;1916485;75;21084;-90
2023/08/17 10:14:10;;;;;;;4.25;2.70;;;28.90;99.90;;;;;;1917512;75;21059;-89
2023/08/17 10:17:06;;;;;;;5.47;3.25;;;29.00;99.90;;;;;;1916357;75;21040;-89
2023/08/17 10:20:02;;;;;;;4.95;3.37;;;29.00;99.90;;;;;;1916707;75;21175;-89
2023/08/17 10:22:59;;;;;;;4.40;2.80;;;29.20;99.90;;;;;;1916491;75;21095;-88
2023/08/17 10:25:56;;;;;;;5.22;2.80;;;29.30;99.90;;;;;;1916429;75;21123;-89
2023/08/17 10:28:57;;;;;;;6.58;3.10;;;29.30;99.90;;;;;;1897742;75;21118;-90
2023/08/17 10:31:55;;;;;;;6.35;2.90;;;29.40;99.90;;;;;;1916547;75;21173;-90
2023/08/17 10:34:47;;;;;;;;;;;29.50;99.90;;;;;;1890011;75;21161;-89
2023/08/17 10:37:43;;;;;;;5.50;2.45;;;29.60;99.90;;;;;;1883322;76;20158;-90
2023/08/17 10:40:42;;;;;;;4.25;2.58;;;29.70;99.90;;;;;;1883795;76;21153;-90
2023/08/17 10:43:38;;;;;;;4.40;2.60;;;29.80;99.90;;;;;;1883550;76;21137;-90
2023/08/17 10:46:39;;;;;;;5.28;2.47;;;29.90;99.90;;;;;;1883624;76;21108;-90
2023/08/17 10:49:35;;;;;;;3.20;2.60;;;29.90;99.90;;;;;;1883595;76;21538;-90
2023/08/17 10:52:33;;;;;;;5.05;2.60;;;30.00;99.90;;;;;;1883758;76;21114;-90
2023/08/17 10:55:41;;;;;;;5.42;2.60;;;30.10;99.90;;;;;;1883583;76;21664;-90
2023/08/17 10:58:36;;;;;;;5.70;2.45;;;30.20;99.90;;;;;;1883557;76;21107;-90
2023/08/17 11:01:38;;;;;;;7.37;2.77;;;30.30;99.90;;;;;;1883461;76;21185;-89
2023/08/17 11:07:19;;;;;;;7.12;2.52;;;30.50;99.90;;;;;;1957237;72;22246;-90
2023/08/17 11:10:30;;;;;;;3.87;2.30;;;30.70;99.90;;;;;;1917078;75;21591;-89
2023/08/17 11:13:21;;;;;;;4.62;2.60;;;30.80;99.70;;;;;;1917286;75;21155;-89
2023/08/17 11:16:14;;;;;;;6.30;2.58;;;30.90;98.50;;;;;;1917283;75;21086;-89
2023/08/17 11:19:07;;;;;;;4.00;2.40;;;31.10;96.80;;;;;;1916967;75;21891;-89
2023/08/17 11:22:01;;;;;;;5.55;2.50;;;31.20;96.00;;;;;;1916547;75;21657;-89
2023/08/17 11:24:53;;;;;;;6.15;2.42;;;31.20;94.70;;;;;;1917163;75;21115;-89
2023/08/17 11:27:45;;;;;;;4.90;2.20;;;31.40;94.40;;;;;;1917038;75;21059;-89
2023/08/17 11:30:38;;;;;;;7.72;2.22;;;31.60;93.20;;;;;;1917096;75;21225;-90
2023/08/17 11:33:33;;;;;;;6.97;2.27;;;31.80;92.30;;;;;;1917122;75;21101;-89
2023/08/17 11:36:25;;;;;;;4.90;2.12;;;32.00;90.60;;;;;;1917213;75;21095;-89
2023/08/17 11:39:20;;;;;;;4.47;2.33;;;32.20;89.40;;;;;;1917157;75;21109;-89
2023/08/17 11:42:09;;;;;;;4.65;2.25;;;32.20;89.40;;;;;;1916920;75;21181;-89
2023/08/17 11:45:01;;;;;;;4.50;2.40;;;32.20;89.70;;;;;;1916418;75;21055;-90
2023/08/17 11:47:52;;;;;;;3.77;2.27;;;32.00;88.80;;;;;;1916712;75;21090;-89
2023/08/17 11:50:43;;;;;;;5.75;2.58;;;32.00;89.20;;;;;;1916957;75;21156;-89
2023/08/17 11:53:39;;;;;;;5.08;2.40;;;32.10;88.70;;;;;;1917013;75;21226;-89
2023/08/17 11:56:31;;;;;;;4.83;2.20;;;32.00;87.50;;;;;;1918637;75;21190;-90
2023/08/17 11:59:22;;;;;;;6.03;2.30;;;32.10;86.90;;;;;;1918527;75;21094;-89
2023/08/17 12:02:15;;;;;;;5.22;2.02;;;32.30;86.20;;;;;;1917287;75;21086;-89
2023/08/17 12:05:07;;;;;;;5.87;2.17;;;32.40;84.70;;;;;;1917368;75;21594;-88
2023/08/17 12:08:00;;;;;;;5.85;2.35;;;32.50;82.80;;;;;;1893478;76;21137;-89
2023/08/17 12:10:52;;;;;;;5.15;2.67;;;32.70;82.50;;;;;;1893769;76;21054;-89
2023/08/17 12:13:45;;;;;;;5.10;1.90;;;32.50;81.70;;;;;;1893662;76;21090;-88
2023/08/17 12:16:38;;;;;;;5.87;2.37;;;32.60;78.70;;;;;;1893225;76;21090;-89
2023/08/17 12:19:30;;;;;;;5.33;2.62;;;32.80;79.60;;;;;;1893026;76;21113;-87
2023/08/17 12:22:23;;;;;;;5.42;2.15;;;32.80;77.10;;;;;;1893022;76;21113;-89
2023/08/17 12:25:15;;;;;;;9.08;2.37;;;33.00;77.80;;;;;;1892844;76;21513;-90
2023/08/17 12:28:07;;;;;;;7.10;2.65;;;33.00;77.60;;;;;;1892839;76;21062;-89
2023/08/17 12:31:13;;;;;;;5.70;2.52;;;33.10;78.60;;;;;;1893467;76;21179;-88
2023/08/17 12:34:06;;;;;;;5.60;2.05;;;33.20;78.50;;;;;;1893837;73;21136;-89
2023/08/17 12:36:57;;;;;;;5.30;1.90;;;33.30;78.50;;;;;;1963869;73;21672;-89
2023/08/17 12:39:49;;;;;;;5.35;2.40;;;33.20;78.00;;;;;;1963922;73;21135;-88
2023/08/17 12:42:40;;;;;;;3.70;2.00;;;33.20;77.40;;;;;;1964195;73;21062;-89
2023/08/17 12:45:32;;;;;;;7.65;2.27;;;33.20;76.30;;;;;;1963953;73;21090;-90
2023/08/17 12:48:23;;;;;;;5.65;2.25;;;33.20;76.10;;;;;;1967323;73;21175;-90
2023/08/17 12:51:14;;;;;;;3.72;1.67;;;33.30;75.50;;;;;;1967591;73;21172;-89
2023/08/17 12:54:06;;;;;;;2.90;2.00;;;33.40;74.80;;;;;;1967336;73;21046;-90
2023/08/17 12:56:57;;;;;;;5.87;1.87;;;33.60;74.20;;;;;;1967254;73;21160;-89
2023/08/17 12:59:51;;;;;;;6.97;1.90;;;33.70;72.50;;;;;;1967620;73;21063;-88
2023/08/17 13:02:44;;;;;;;5.53;1.92;;;33.60;70.50;;;;;;1967286;73;21110;-90
2023/08/17 13:05:36;;;;;;;7.45;1.90;;;33.50;70.80;;;;;;1967542;73;21126;-89
2023/08/17 13:08:29;;;;;;;8.08;1.70;;;33.40;68.70;;;;;;1951326;73;21106;-88
2023/08/17 13:11:24;;;;;;;4.92;1.52;;;33.40;67.00;;;;;;1947109;74;21116;-89
2023/08/17 13:14:16;;;;;;;4.12;1.70;;;33.30;64.70;;;;;;1947282;74;21507;-87
2023/08/17 13:17:09;;;;;;;4.00;1.60;;;33.30;64.00;;;;;;1946771;74;21550;-89
2023/08/17 13:20:03;;;;;;;4.97;1.52;;;33.40;64.40;;;;;;1947208;74;21118;-89
2023/08/17 13:22:55;;;;;;;6.20;1.70;;;33.40;61.60;;;;;;1916989;74;21127;-89
2023/08/17 13:25:50;;;;;;;3.67;1.40;;;33.40;60.80;;;;;;1947140;74;21091;-89
2023/08/17 13:28:46;;;;;;;3.70;1.30;;;33.30;60.00;;;;;;1946948;74;21180;-89
2023/08/17 13:31:39;;;;;;;4.65;1.82;;;33.40;60.30;;;;;;1947122;74;21172;-90
2023/08/17 13:34:31;;;;;;;4.08;1.70;;;33.50;59.90;;;;;;1947076;74;21130;-88
2023/08/17 13:37:23;;;;;;;3.80;1.30;;;33.50;59.30;;;;;;1947242;74;21156;-89
2023/08/17 13:40:25;;;;;;;5.37;1.50;;;33.50;59.40;;;;;;1947197;74;21102;-89
2023/08/17 13:43:22;;;;;;;5.33;1.70;;;33.50;59.10;;;;;;1917328;74;21133;-88
2023/08/17 13:46:31;;;;;;;6.20;1.70;;;33.70;59.10;;;;;;1947227;74;21103;-89
2023/08/17 13:49:24;;;;;;;5.50;1.32;;;33.70;58.90;;;;;;1947774;74;21086;-88
2023/08/17 13:52:19;;;;;;;3.92;1.57;;;33.70;59.00;;;;;;1947885;74;21099;-88
2023/08/17 13:55:13;;;;;;;4.50;1.70;;;33.70;59.60;;;;;;1947815;74;21495;-87
2023/08/17 13:58:11;;;;;;;6.67;1.60;;;33.90;58.80;;;;;;1947317;74;21094;-88
2023/08/17 14:01:07;;;;;;;4.28;1.50;;;34.00;59.20;;;;;;1948111;74;21106;-88
2023/08/17 14:04:06;;;;;;;4.25;1.60;;;34.10;59.00;;;;;;1947435;74;21179;-90
2023/08/17 14:07:02;;;;;;;3.55;1.52;;;34.20;58.70;;;;;;1947193;74;21165;-88
2023/08/17 14:09:56;;;;;;;4.25;1.52;;;34.50;58.20;;;;;;1951424;73;21114;-89
2023/08/17 14:12:54;;;;;;;3.30;1.50;;;34.50;58.40;;;;;;1951733;73;21063;-88
2023/08/17 14:15:55;;;;;;;4.30;1.35;;;34.70;58.70;;;;;;1951732;73;21386;-87
2023/08/17 14:18:48;;;;;;;4.78;1.65;;;35.10;58.00;;;;;;1951444;73;21107;-88
2023/08/17 14:21:42;;;;;;;6.87;2.17;;;35.00;57.70;;;;;;1951250;73;21613;-88
2023/08/17 14:24:43;;;;;;;2.77;1.35;;;35.50;57.10;;;;;;1951299;73;21070;-88
2023/08/17 14:27:41;;;;;;;3.27;1.62;;;35.90;56.20;;;;;;1951320;73;21110;-89
2023/08/17 14:30:37;;;;;;;4.35;1.80;;;35.80;56.40;;;;;;1951378;73;21162;-87
2023/08/17 14:33:32;;;;;;;4.42;1.65;;;35.90;56.00;;;;;;1951379;73;21075;-88
2023/08/17 14:36:25;;;;;;;5.42;1.90;;;36.30;55.30;;;;;;1881470;75;21111;-89
2023/08/17 14:39:22;;;;;;;5.53;1.87;;;36.60;55.60;;;;;;1896648;76;21209;-89
2023/08/17 14:42:19;;;;;;;3.85;1.62;;;36.70;54.40;;;;;;1896590;76;21375;-89
2023/08/17 14:45:15;;;;;;;4.05;1.72;;;36.90;53.90;;;;;;1896505;76;21072;-88
2023/08/17 14:48:10;;;;;;;2.30;1.47;;;37.20;54.30;;;;;;1896398;76;21075;-88
2023/08/17 14:51:04;;;;;;;5.40;1.82;;;37.40;53.90;;;;;;1896694;76;21147;-87
2023/08/17 14:53:56;;;;;;;4.58;2.05;;;37.40;54.00;;;;;;1896572;76;21144;-89
2023/08/17 14:56:47;;;;;;;3.90;1.70;;;37.50;54.20;;;;;;1896789;76;21614;-89
2023/08/17 14:59:39;;;;;;;3.87;1.77;;;37.70;53.70;;;;;;1896525;76;21073;-87
2023/08/17 15:02:31;;;;;;;6.25;1.70;;;37.60;53.80;;;;;;1896258;76;21103;-89
2023/08/17 15:05:22;;;;;;;2.40;1.47;;;37.60;53.40;;;;;;1896462;76;21134;-89
2023/08/17 15:08:16;;;;;;;3.47;1.50;;;37.70;52.70;;;;;;1896809;76;21409;-87